Tanger Express — CNA4608 — position and weather

sailwx.info

Track history (hours):
 
Tides and Currents Weather Stations Pressure Air Temp Water Temp Dewpoint Dewpoint Depression Visibility Wind Speed Wind Dir Waves Ship Positions

Tanger Express

Last reported at 2018-Jun-18 23:00 UTC. Time now 2018-Jun-18 23:15 UTC.
Position N 36°01' W 005°26'.

Length 136 m; draft 4.9 m.

Type: Passenger vessel. MMSI: 242127000.

Date/timePositionNaut miles runAvg speedWind from/ knotsBaromVisibWave heightAir tempDewpointWater temp
2018-Jun-18 23:00N 36°01' W 005°26'714.7
2018-Jun-18 22:30N 36°08' W 005°24'2 0.8
2018-Jun-18 20:42N 36°08' W 005°26'1 4.7
2018-Jun-18 20:28N 36°09' W 005°26'714.7
2018-Jun-18 20:00N 36°03' W 005°24'8 3.0
2018-Jun-18 17:20N 35°56' W 005°30'515.8
2018-Jun-18 17:00N 36°00' W 005°26'5 2.2
2018-Jun-18 14:32N 36°05' W 005°24'116.8
2018-Jun-18 14:30N 36°05' W 005°24'816.8
2018-Jun-18 14:00N 35°57' W 005°28'2 0.7
2018-Jun-18 11:35N 35°56' W 005°30'115.5
2018-Jun-18 11:30N 35°57' W 005°29'816.0
2018-Jun-18 11:00N 36°04' W 005°24'1 0.2
2018-Jun-18 08:17N 36°04' W 005°24'517.8
2018-Jun-18 08:01N 35°59' W 005°25'8 3.3
2018-Jun-18 05:39N 35°53' W 005°31'1 7.6
2018-Jun-18 05:30N 35°54' W 005°32'815.8
2018-Jun-18 05:00N 36°01' W 005°26'815.2
2018-Jun-18 04:30N 36°08' W 005°24'2 1.9
2018-Jun-18 03:41N 36°08' W 005°26'0 0.0
2018-Jun-18 03:29N 36°08' W 005°26'1 1.7
2018-Jun-18 02:47N 36°09' W 005°26'514.6
2018-Jun-18 02:27N 36°05' W 005°23'817.4
2018-Jun-18 02:01N 35°58' W 005°27'6 2.5
2018-Jun-17 23:39N 35°53' W 005°31'1 7.2
2018-Jun-17 23:29N 35°54' W 005°31'612.3
2018-Jun-17 23:01N 35°59' W 005°28'714.4
2018-Jun-17 22:30N 36°06' W 005°24'3 4.1
2018-Jun-17 21:48N 36°08' W 005°26'0 0.0
2018-Jun-17 21:26N 36°08' W 005°26'0 0.0
2018-Jun-17 20:56N 36°08' W 005°26'2 3.5
2018-Jun-17 20:30N 36°09' W 005°25'816.5
2018-Jun-17 20:00N 36°01' W 005°25'917.9
2018-Jun-17 19:30N 35°53' W 005°31'3 1.3
2018-Jun-17 17:10N 35°56' W 005°30'316.3
2018-Jun-17 17:00N 35°59' W 005°29'815.7
2018-Jun-17 16:30N 36°05' W 005°24'3 2.5
2018-Jun-17 15:11N 36°08' W 005°26'0 2.8
2018-Jun-17 15:00N 36°08' W 005°26'611.6
2018-Jun-17 14:30N 36°03' W 005°24'816.6
2018-Jun-17 14:00N 35°56' W 005°30'3 1.3
2018-Jun-17 11:46N 35°53' W 005°31'3 9.3
2018-Jun-17 11:25N 35°56' W 005°30'615.8
2018-Jun-17 11:01N 36°01' W 005°25'712.2
2018-Jun-17 10:26N 36°08' W 005°26'1 0.4
2018-Jun-17 08:53N 36°08' W 005°26'2 5.8
2018-Jun-17 08:30N 36°07' W 005°24'715.2
2018-Jun-17 08:00N 35°60' W 005°24'816.3
2018-Jun-17 07:30N 35°54' W 005°31'0 0.2
2018-Jun-17 05:26N 35°54' W 005°31'614.6
2018-Jun-17 05:00N 35°59' W 005°28'815.4
2018-Jun-17 04:30N 36°06' W 005°24'3 5.2
2018-Jun-17 03:59N 36°08' W 005°26'0 0.0
2018-Jun-17 03:30N 36°08' W 005°26'0 0.0
2018-Jun-17 03:00N 36°08' W 005°26'1 2.3
2018-Jun-17 02:30N 36°09' W 005°26'713.6
2018-Jun-17 02:00N 36°03' W 005°24'1017.1
2018-Jun-17 01:24N 35°54' W 005°31'1 0.7
2018-Jun-16 23:36N 35°53' W 005°31'1 5.7
2018-Jun-16 23:30N 35°53' W 005°31'815.4
2018-Jun-16 23:00N 35°60' W 005°26'714.1
2018-Jun-16 22:30N 36°07' W 005°24'2 4.7
2018-Jun-16 22:01N 36°08' W 005°26'0 0.0
2018-Jun-16 21:30N 36°08' W 005°26'0 0.0
2018-Jun-16 21:00N 36°08' W 005°26'0 1.0
2018-Jun-16 20:31N 36°08' W 005°26'510.6
2018-Jun-16 20:00N 36°03' W 005°24'1119.4
2018-Jun-16 19:26N 35°54' W 005°31'3 1.2
2018-Jun-16 17:13N 35°56' W 005°30'316.0
2018-Jun-16 17:00N 35°59' W 005°28'815.0
2018-Jun-16 16:29N 36°07' W 005°24'2 2.8
2018-Jun-16 15:39N 36°08' W 005°26'0 0.0
2018-Jun-16 15:28N 36°08' W 005°26'0 0.8
2018-Jun-16 14:59N 36°08' W 005°26'511.1
2018-Jun-16 14:30N 36°03' W 005°24'9 2.8
2018-Jun-16 11:23N 35°56' W 005°30'616.3
2018-Jun-16 11:00N 36°01' W 005°26'4 1.5
2018-Jun-16 08:24N 36°05' W 005°23'717.0
2018-Jun-16 08:01N 35°58' W 005°27'7 2.6
2018-Jun-16 05:27N 35°53' W 005°31'714.9
2018-Jun-16 05:00N 35°59' W 005°28'815.4
2018-Jun-16 04:30N 36°06' W 005°24'3 5.5
2018-Jun-16 04:00N 36°08' W 005°26'0 0.0
2018-Jun-16 03:30N 36°08' W 005°26'1 1.5
2018-Jun-16 03:00N 36°09' W 005°26'2 4.9
2018-Jun-16 02:31N 36°07' W 005°24'917.1
2018-Jun-16 02:01N 35°58' W 005°26'7 3.8
2018-Jun-16 00:12N 35°53' W 005°31'312.1
2018-Jun-15 23:58N 35°56' W 005°31'715.7
2018-Jun-15 23:30N 36°02' W 005°25'714.7
2018-Jun-15 23:00N 36°09' W 005°25'1 1.7
2018-Jun-15 22:15N 36°08' W 005°26'0 0.0
2018-Jun-15 21:40N 36°08' W 005°26'0 0.0
2018-Jun-15 21:27N 36°08' W 005°26'0 0.0
2018-Jun-15 20:59N 36°08' W 005°26'2 3.4
2018-Jun-15 20:30N 36°09' W 005°25'3 5.3
2018-Jun-15 19:59N 36°06' W 005°23'918.8
2018-Jun-15 19:30N 35°58' W 005°27'6 3.7
2018-Jun-15 18:00N 35°53' W 005°31'2 4.5
2018-Jun-15 17:29N 35°55' W 005°33'613.7
2018-Jun-15 17:00N 35°59' W 005°27'813.7
2018-Jun-15 16:27N 36°07' W 005°24'2 5.0
2018-Jun-15 15:59N 36°08' W 005°26'4 2.7
2018-Jun-15 14:23N 36°04' W 005°24'718.4
2018-Jun-15 14:01N 35°58' W 005°27'3 1.0
2018-Jun-15 11:17N 35°56' W 005°30'416.3
2018-Jun-15 11:00N 36°00' W 005°27'8 3.3
2018-Jun-15 08:36N 36°08' W 005°26'1 4.1
2018-Jun-15 08:18N 36°08' W 005°25'516.2
2018-Jun-15 08:01N 36°04' W 005°24'12 4.8
2018-Jun-15 05:32N 35°54' W 005°32'0 4.7
2018-Jun-15 05:30N 35°54' W 005°32'613.1
2018-Jun-15 05:01N 35°59' W 005°27'815.4
2018-Jun-15 04:31N 36°06' W 005°24'2 4.7
2018-Jun-15 04:00N 36°08' W 005°26'0 0.0
2018-Jun-15 03:30N 36°08' W 005°26'1 1.5
2018-Jun-15 03:00N 36°09' W 005°26'613.0
2018-Jun-15 02:30N 36°02' W 005°24'917.9
2018-Jun-15 01:59N 35°55' W 005°30'2 0.9
2018-Jun-14 23:41N 35°53' W 005°31'1 6.6
2018-Jun-14 23:28N 35°54' W 005°31'714.3
2018-Jun-14 23:01N 35°60' W 005°27'8 4.6
2018-Jun-14 21:14N 36°08' W 005°26'0 0.0
2018-Jun-14 21:00N 36°08' W 005°26'1 2.3
2018-Jun-14 20:30N 36°09' W 005°26'815.3
2018-Jun-14 20:00N 36°01' W 005°24'1018.8
2018-Jun-14 19:28N 35°53' W 005°31'3 1.6
2018-Jun-14 17:23N 35°56' W 005°30'513.6
2018-Jun-14 17:01N 36°01' W 005°26'714.5
2018-Jun-14 16:31N 36°08' W 005°24'2 1.2
2018-Jun-14 15:12N 36°08' W 005°26'0 0.0
2018-Jun-14 14:55N 36°08' W 005°26'2 3.7
2018-Jun-14 14:30N 36°08' W 005°24'917.0
2018-Jun-14 14:00N 35°60' W 005°25'5 2.0
2018-Jun-14 11:33N 35°56' W 005°29'116.4
2018-Jun-14 11:30N 35°57' W 005°29'815.2
2018-Jun-14 11:00N 36°04' W 005°24'4 2.1
2018-Jun-14 08:53N 36°08' W 005°26'2 4.2
2018-Jun-14 08:30N 36°08' W 005°24'917.4
2018-Jun-14 08:01N 35°60' W 005°25'8 3.7
2018-Jun-14 05:44N 35°53' W 005°31'312.1
2018-Jun-14 05:27N 35°56' W 005°30'614.2
2018-Jun-14 05:00N 36°01' W 005°26'714.6
2018-Jun-14 04:30N 36°09' W 005°25'1 2.7
2018-Jun-14 04:00N 36°08' W 005°26'0 0.0
2018-Jun-14 03:31N 36°08' W 005°26'0 0.0
2018-Jun-14 03:00N 36°08' W 005°26'0 0.3
2018-Jun-14 02:30N 36°08' W 005°26'4 7.7
2018-Jun-14 02:01N 36°05' W 005°23'918.4
2018-Jun-14 01:30N 35°57' W 005°28'1 0.6
2018-Jun-13 23:24N 35°56' W 005°30'614.9
2018-Jun-13 23:00N 36°01' W 005°26'814.7
2018-Jun-13 22:29N 36°09' W 005°25'1 2.5
2018-Jun-13 21:59N 36°08' W 005°26'0 0.0
2018-Jun-13 21:30N 36°08' W 005°26'0 0.3
2018-Jun-13 21:00N 36°08' W 005°26'4 8.0
2018-Jun-13 20:31N 36°05' W 005°23'816.9
2018-Jun-13 20:00N 35°57' W 005°27'3 1.3
2018-Jun-13 17:35N 35°56' W 005°30'114.1
2018-Jun-13 17:30N 35°57' W 005°30'612.8
2018-Jun-13 17:00N 36°02' W 005°25'6 9.7
2018-Jun-13 16:24N 36°08' W 005°26'1 0.5
2018-Jun-13 14:28N 36°09' W 005°26'715.8
2018-Jun-13 14:01N 36°02' W 005°24'7 2.7
2018-Jun-13 11:28N 35°56' W 005°30'715.1
2018-Jun-13 11:00N 36°02' W 005°25'712.3
2018-Jun-13 10:28N 36°09' W 005°26'1 0.4
2018-Jun-13 08:41N 36°08' W 005°26'1 5.7
2018-Jun-13 08:30N 36°09' W 005°25'815.8
2018-Jun-13 08:01N 36°01' W 005°25'10 4.9
2018-Jun-13 06:01N 35°53' W 005°31'0 2.4
2018-Jun-13 05:56N 35°53' W 005°31'512.7
2018-Jun-13 05:30N 35°58' W 005°29'713.4
2018-Jun-13 05:01N 36°04' W 005°24'5 9.6
2018-Jun-13 04:30N 36°08' W 005°26'0 0.8
2018-Jun-13 04:00N 36°08' W 005°26'0 0.0
2018-Jun-13 03:30N 36°08' W 005°26'0 0.0
2018-Jun-13 03:00N 36°08' W 005°26'1 2.7
2018-Jun-13 02:30N 36°09' W 005°25'815.4
2018-Jun-13 02:00N 36°01' W 005°24'917.5
2018-Jun-13 01:28N 35°54' W 005°31'3 1.2
2018-Jun-12 23:20N 35°56' W 005°30'515.3
2018-Jun-12 23:00N 36°00' W 005°26'815.0
2018-Jun-12 22:29N 36°08' W 005°24'2 1.0
2018-Jun-12 20:45N 36°08' W 005°26'1 2.2
2018-Jun-12 20:30N 36°08' W 005°26'611.8
2018-Jun-12 20:00N 36°03' W 005°23'8 1.0
2018-Jun-12 11:29N 35°56' W 005°30'714.9
2018-Jun-12 11:00N 36°02' W 005°25'7 2.7
2018-Jun-12 08:34N 36°09' W 005°26'112.7
2018-Jun-12 08:29N 36°09' W 005°25'816.7
2018-Jun-12 08:00N 36°01' W 005°24'6 2.2
2018-Jun-12 05:22N 35°57' W 005°29'513.5
2018-Jun-12 05:00N 36°01' W 005°26'815.0
2018-Jun-12 04:30N 36°08' W 005°24'1 2.9
2018-Jun-12 04:00N 36°08' W 005°26'0 0.0
2018-Jun-12 03:30N 36°08' W 005°26'0 0.0
2018-Jun-12 03:00N 36°08' W 005°26'1 2.9
2018-Jun-12 02:30N 36°09' W 005°25'817.0
2018-Jun-12 02:01N 36°01' W 005°24'10 4.6
2018-Jun-11 23:53N 35°53' W 005°31'615.3
2018-Jun-11 23:30N 35°58' W 005°29'714.5
2018-Jun-11 23:01N 36°05' W 005°24'4 7.7
2018-Jun-11 22:31N 36°08' W 005°26'0 0.0
2018-Jun-11 22:01N 36°08' W 005°26'1 2.3
2018-Jun-11 21:30N 36°09' W 005°26'3 5.9
2018-Jun-11 20:59N 36°09' W 005°22'1 1.4
2018-Jun-11 20:30N 36°09' W 005°23'714.4
2018-Jun-11 20:00N 36°01' W 005°24'7 2.8
2018-Jun-11 17:32N 35°56' W 005°30'114.7
2018-Jun-11 17:30N 35°57' W 005°29'713.5
2018-Jun-11 17:01N 36°02' W 005°25'6 2.7
2018-Jun-11 14:50N 36°08' W 005°26'711.2
2018-Jun-11 14:15N 36°02' W 005°23'11 1.3
2018-Jun-11 05:42N 35°53' W 005°31'313.9
2018-Jun-11 05:29N 35°56' W 005°30'613.4
2018-Jun-11 05:00N 36°01' W 005°26'714.8
2018-Jun-11 04:30N 36°09' W 005°25'1 2.4
2018-Jun-11 03:58N 36°08' W 005°26'0 0.0
2018-Jun-11 03:30N 36°08' W 005°26'0 0.0
2018-Jun-11 02:59N 36°08' W 005°26'0 0.7
2018-Jun-11 02:31N 36°08' W 005°26'510.1
2018-Jun-11 02:00N 36°04' W 005°24'9 3.2
2018-Jun-10 23:15N 35°56' W 005°30'415.3
2018-Jun-10 23:00N 35°59' W 005°27'714.9
2018-Jun-10 22:30N 36°06' W 005°24'3 1.8
2018-Jun-10 21:04N 36°08' W 005°26'0 0.1
2018-Jun-10 20:54N 36°08' W 005°26'4 7.0
2018-Jun-10 20:17N 36°05' W 005°23'415.0
2018-Jun-10 20:00N 36°00' W 005°23'7 2.5
2018-Jun-10 17:18N 35°56' W 005°30'413.5
2018-Jun-10 17:00N 35°59' W 005°27'714.1
2018-Jun-10 16:31N 36°06' W 005°24'3 1.7
2018-Jun-10 14:55N 36°08' W 005°26'0 0.1
2018-Jun-10 14:30N 36°08' W 005°26'1111.3
2018-Jun-10 13:30N 35°57' W 005°28'2 0.8
2018-Jun-10 11:22N 35°56' W 005°30'615.1
2018-Jun-10 11:00N 36°01' W 005°26'714.8
2018-Jun-10 10:31N 36°08' W 005°24'2 3.2
2018-Jun-10 10:00N 36°08' W 005°26'0 0.0
2018-Jun-10 09:30N 36°08' W 005°26'0 0.0
2018-Jun-10 08:58N 36°08' W 005°26'0 0.0
2018-Jun-10 08:30N 36°08' W 005°26'3 5.7
2018-Jun-10 08:00N 36°06' W 005°24'917.4
2018-Jun-10 07:31N 35°58' W 005°27'6 3.2
2018-Jun-10 05:41N 35°53' W 005°31'311.1
2018-Jun-10 05:24N 35°56' W 005°31'614.6
2018-Jun-10 05:00N 36°00' W 005°27'714.9
2018-Jun-10 04:30N 36°08' W 005°24'2 3.3
2018-Jun-10 03:58N 36°08' W 005°26'0 0.0
2018-Jun-10 03:28N 36°08' W 005°26'0 0.0
2018-Jun-10 03:00N 36°08' W 005°26'0 0.0
2018-Jun-10 02:30N 36°08' W 005°26'3 6.3
2018-Jun-10 02:01N 36°06' W 005°23'918.0
2018-Jun-10 01:31N 35°57' W 005°27'5 2.7
2018-Jun-09 23:33N 35°54' W 005°31'0 9.6
2018-Jun-09 23:31N 35°54' W 005°31'611.3
2018-Jun-09 23:01N 35°59' W 005°28'714.5
2018-Jun-09 22:30N 36°05' W 005°24'3 6.3
2018-Jun-09 22:00N 36°08' W 005°26'0 0.0
2018-Jun-09 21:00N 36°08' W 005°26'1 1.7
2018-Jun-09 20:30N 36°09' W 005°26'612.6
2018-Jun-09 20:00N 36°03' W 005°23'1117.8
2018-Jun-09 19:24N 35°54' W 005°31'1 0.4
2018-Jun-09 17:27N 35°54' W 005°31'614.5
2018-Jun-09 17:01N 35°59' W 005°27'714.6
2018-Jun-09 16:31N 36°06' W 005°24'3 5.8
2018-Jun-09 16:00N 36°08' W 005°26'0 0.0
2018-Jun-09 15:00N 36°08' W 005°26'0 0.6
2018-Jun-09 14:30N 36°08' W 005°26'510.5
2018-Jun-09 14:01N 36°03' W 005°24'1118.2
2018-Jun-09 13:24N 35°54' W 005°31'3 1.5
2018-Jun-09 11:20N 35°57' W 005°31'514.6
2018-Jun-09 11:01N 35°60' W 005°26'714.6
2018-Jun-09 10:30N 36°07' W 005°24'2 4.7
2018-Jun-09 10:00N 36°08' W 005°26'0 0.0
2018-Jun-09 09:27N 36°08' W 005°26'0 0.0
2018-Jun-09 08:59N 36°08' W 005°26'1 1.5
2018-Jun-09 08:29N 36°09' W 005°26'612.8
2018-Jun-09 08:00N 36°03' W 005°24'11 4.3
2018-Jun-09 05:30N 35°54' W 005°32'611.7
2018-Jun-09 05:00N 35°59' W 005°28'714.4
2018-Jun-09 04:30N 36°05' W 005°24'3 1.6
2018-Jun-09 02:27N 36°08' W 005°26'3 6.0
2018-Jun-09 02:00N 36°06' W 005°24'917.9
2018-Jun-09 01:31N 35°58' W 005°27'6 3.3
2018-Jun-08 23:47N 35°53' W 005°31'1 3.6
2018-Jun-08 23:28N 35°54' W 005°32'612.6
2018-Jun-08 23:00N 35°59' W 005°28'  
Track history (hours):
 
Tides and Currents Weather Stations Pressure Air Temp Water Temp Dewpoint Dewpoint Depression Visibility Wind Speed Wind Dir Waves Ship Positions

Tanger Express

Last reported at 2018-Jun-18 23:00 UTC. Time now 2018-Jun-18 23:15 UTC.
Position N 36°01' W 005°26'.

Length 136 m; draft 4.9 m.

Type: Passenger vessel. MMSI: 242127000.

Date/timePositionNaut miles runAvg speedWind from/ knotsBaromVisibWave heightAir tempDewpointWater temp
2018-Jun-18 23:00N 36°01' W 005°26'714.7
2018-Jun-18 22:30N 36°08' W 005°24'2 0.8
2018-Jun-18 20:42N 36°08' W 005°26'1 4.7
2018-Jun-18 20:28N 36°09' W 005°26'714.7
2018-Jun-18 20:00N 36°03' W 005°24'8 3.0
2018-Jun-18 17:20N 35°56' W 005°30'515.8
2018-Jun-18 17:00N 36°00' W 005°26'5 2.2
2018-Jun-18 14:32N 36°05' W 005°24'116.8
2018-Jun-18 14:30N 36°05' W 005°24'816.8
2018-Jun-18 14:00N 35°57' W 005°28'2 0.7
2018-Jun-18 11:35N 35°56' W 005°30'115.5
2018-Jun-18 11:30N 35°57' W 005°29'816.0
2018-Jun-18 11:00N 36°04' W 005°24'1 0.2
2018-Jun-18 08:17N 36°04' W 005°24'517.8
2018-Jun-18 08:01N 35°59' W 005°25'8 3.3
2018-Jun-18 05:39N 35°53' W 005°31'1 7.6
2018-Jun-18 05:30N 35°54' W 005°32'815.8
2018-Jun-18 05:00N 36°01' W 005°26'815.2
2018-Jun-18 04:30N 36°08' W 005°24'2 1.9
2018-Jun-18 03:41N 36°08' W 005°26'0 0.0
2018-Jun-18 03:29N 36°08' W 005°26'1 1.7
2018-Jun-18 02:47N 36°09' W 005°26'514.6
2018-Jun-18 02:27N 36°05' W 005°23'817.4
2018-Jun-18 02:01N 35°58' W 005°27'6 2.5
2018-Jun-17 23:39N 35°53' W 005°31'1 7.2
2018-Jun-17 23:29N 35°54' W 005°31'612.3
2018-Jun-17 23:01N 35°59' W 005°28'714.4
2018-Jun-17 22:30N 36°06' W 005°24'3 4.1
2018-Jun-17 21:48N 36°08' W 005°26'0 0.0
2018-Jun-17 21:26N 36°08' W 005°26'0 0.0
2018-Jun-17 20:56N 36°08' W 005°26'2 3.5
2018-Jun-17 20:30N 36°09' W 005°25'816.5
2018-Jun-17 20:00N 36°01' W 005°25'917.9
2018-Jun-17 19:30N 35°53' W 005°31'3 1.3
2018-Jun-17 17:10N 35°56' W 005°30'316.3
2018-Jun-17 17:00N 35°59' W 005°29'815.7
2018-Jun-17 16:30N 36°05' W 005°24'3 2.5
2018-Jun-17 15:11N 36°08' W 005°26'0 2.8
2018-Jun-17 15:00N 36°08' W 005°26'611.6
2018-Jun-17 14:30N 36°03' W 005°24'816.6
2018-Jun-17 14:00N 35°56' W 005°30'3 1.3
2018-Jun-17 11:46N 35°53' W 005°31'3 9.3
2018-Jun-17 11:25N 35°56' W 005°30'615.8
2018-Jun-17 11:01N 36°01' W 005°25'712.2
2018-Jun-17 10:26N 36°08' W 005°26'1 0.4
2018-Jun-17 08:53N 36°08' W 005°26'2 5.8
2018-Jun-17 08:30N 36°07' W 005°24'715.2
2018-Jun-17 08:00N 35°60' W 005°24'816.3
2018-Jun-17 07:30N 35°54' W 005°31'0 0.2
2018-Jun-17 05:26N 35°54' W 005°31'614.6
2018-Jun-17 05:00N 35°59' W 005°28'815.4
2018-Jun-17 04:30N 36°06' W 005°24'3 5.2
2018-Jun-17 03:59N 36°08' W 005°26'0 0.0
2018-Jun-17 03:30N 36°08' W 005°26'0 0.0
2018-Jun-17 03:00N 36°08' W 005°26'1 2.3
2018-Jun-17 02:30N 36°09' W 005°26'713.6
2018-Jun-17 02:00N 36°03' W 005°24'1017.1
2018-Jun-17 01:24N 35°54' W 005°31'1 0.7
2018-Jun-16 23:36N 35°53' W 005°31'1 5.7
2018-Jun-16 23:30N 35°53' W 005°31'815.4
2018-Jun-16 23:00N 35°60' W 005°26'714.1
2018-Jun-16 22:30N 36°07' W 005°24'2 4.7
2018-Jun-16 22:01N 36°08' W 005°26'0 0.0
2018-Jun-16 21:30N 36°08' W 005°26'0 0.0
2018-Jun-16 21:00N 36°08' W 005°26'0 1.0
2018-Jun-16 20:31N 36°08' W 005°26'510.6
2018-Jun-16 20:00N 36°03' W 005°24'1119.4
2018-Jun-16 19:26N 35°54' W 005°31'3 1.2
2018-Jun-16 17:13N 35°56' W 005°30'316.0
2018-Jun-16 17:00N 35°59' W 005°28'815.0
2018-Jun-16 16:29N 36°07' W 005°24'2 2.8
2018-Jun-16 15:39N 36°08' W 005°26'0 0.0
2018-Jun-16 15:28N 36°08' W 005°26'0 0.8
2018-Jun-16 14:59N 36°08' W 005°26'511.1
2018-Jun-16 14:30N 36°03' W 005°24'9 2.8
2018-Jun-16 11:23N 35°56' W 005°30'616.3
2018-Jun-16 11:00N 36°01' W 005°26'4 1.5
2018-Jun-16 08:24N 36°05' W 005°23'717.0
2018-Jun-16 08:01N 35°58' W 005°27'7 2.6
2018-Jun-16 05:27N 35°53' W 005°31'714.9
2018-Jun-16 05:00N 35°59' W 005°28'815.4
2018-Jun-16 04:30N 36°06' W 005°24'3 5.5
2018-Jun-16 04:00N 36°08' W 005°26'0 0.0
2018-Jun-16 03:30N 36°08' W 005°26'1 1.5
2018-Jun-16 03:00N 36°09' W 005°26'2 4.9
2018-Jun-16 02:31N 36°07' W 005°24'917.1
2018-Jun-16 02:01N 35°58' W 005°26'7 3.8
2018-Jun-16 00:12N 35°53' W 005°31'312.1
2018-Jun-15 23:58N 35°56' W 005°31'715.7
2018-Jun-15 23:30N 36°02' W 005°25'714.7
2018-Jun-15 23:00N 36°09' W 005°25'1 1.7
2018-Jun-15 22:15N 36°08' W 005°26'0 0.0
2018-Jun-15 21:40N 36°08' W 005°26'0 0.0
2018-Jun-15 21:27N 36°08' W 005°26'0 0.0
2018-Jun-15 20:59N 36°08' W 005°26'2 3.4
2018-Jun-15 20:30N 36°09' W 005°25'3 5.3
2018-Jun-15 19:59N 36°06' W 005°23'918.8
2018-Jun-15 19:30N 35°58' W 005°27'6 3.7
2018-Jun-15 18:00N 35°53' W 005°31'2 4.5
2018-Jun-15 17:29N 35°55' W 005°33'613.7
2018-Jun-15 17:00N 35°59' W 005°27'813.7
2018-Jun-15 16:27N 36°07' W 005°24'2 5.0
2018-Jun-15 15:59N 36°08' W 005°26'4 2.7
2018-Jun-15 14:23N 36°04' W 005°24'718.4
2018-Jun-15 14:01N 35°58' W 005°27'3 1.0
2018-Jun-15 11:17N 35°56' W 005°30'416.3
2018-Jun-15 11:00N 36°00' W 005°27'8 3.3
2018-Jun-15 08:36N 36°08' W 005°26'1 4.1
2018-Jun-15 08:18N 36°08' W 005°25'516.2
2018-Jun-15 08:01N 36°04' W 005°24'12 4.8
2018-Jun-15 05:32N 35°54' W 005°32'0 4.7
2018-Jun-15 05:30N 35°54' W 005°32'613.1
2018-Jun-15 05:01N 35°59' W 005°27'815.4
2018-Jun-15 04:31N 36°06' W 005°24'2 4.7
2018-Jun-15 04:00N 36°08' W 005°26'0 0.0
2018-Jun-15 03:30N 36°08' W 005°26'1 1.5
2018-Jun-15 03:00N 36°09' W 005°26'613.0
2018-Jun-15 02:30N 36°02' W 005°24'917.9
2018-Jun-15 01:59N 35°55' W 005°30'2 0.9
2018-Jun-14 23:41N 35°53' W 005°31'1 6.6
2018-Jun-14 23:28N 35°54' W 005°31'714.3
2018-Jun-14 23:01N 35°60' W 005°27'8 4.6
2018-Jun-14 21:14N 36°08' W 005°26'0 0.0
2018-Jun-14 21:00N 36°08' W 005°26'1 2.3
2018-Jun-14 20:30N 36°09' W 005°26'815.3
2018-Jun-14 20:00N 36°01' W 005°24'1018.8
2018-Jun-14 19:28N 35°53' W 005°31'3 1.6
2018-Jun-14 17:23N 35°56' W 005°30'513.6
2018-Jun-14 17:01N 36°01' W 005°26'714.5
2018-Jun-14 16:31N 36°08' W 005°24'2 1.2
2018-Jun-14 15:12N 36°08' W 005°26'0 0.0
2018-Jun-14 14:55N 36°08' W 005°26'2 3.7
2018-Jun-14 14:30N 36°08' W 005°24'917.0
2018-Jun-14 14:00N 35°60' W 005°25'5 2.0
2018-Jun-14 11:33N 35°56' W 005°29'116.4
2018-Jun-14 11:30N 35°57' W 005°29'815.2
2018-Jun-14 11:00N 36°04' W 005°24'4 2.1
2018-Jun-14 08:53N 36°08' W 005°26'2 4.2
2018-Jun-14 08:30N 36°08' W 005°24'917.4
2018-Jun-14 08:01N 35°60' W 005°25'8 3.7
2018-Jun-14 05:44N 35°53' W 005°31'312.1
2018-Jun-14 05:27N 35°56' W 005°30'614.2
2018-Jun-14 05:00N 36°01' W 005°26'714.6
2018-Jun-14 04:30N 36°09' W 005°25'1 2.7
2018-Jun-14 04:00N 36°08' W 005°26'0 0.0
2018-Jun-14 03:31N 36°08' W 005°26'0 0.0
2018-Jun-14 03:00N 36°08' W 005°26'0 0.3
2018-Jun-14 02:30N 36°08' W 005°26'4 7.7
2018-Jun-14 02:01N 36°05' W 005°23'918.4
2018-Jun-14 01:30N 35°57' W 005°28'1 0.6
2018-Jun-13 23:24N 35°56' W 005°30'614.9
2018-Jun-13 23:00N 36°01' W 005°26'814.7
2018-Jun-13 22:29N 36°09' W 005°25'1 2.5
2018-Jun-13 21:59N 36°08' W 005°26'0 0.0
2018-Jun-13 21:30N 36°08' W 005°26'0 0.3
2018-Jun-13 21:00N 36°08' W 005°26'4 8.0
2018-Jun-13 20:31N 36°05' W 005°23'816.9
2018-Jun-13 20:00N 35°57' W 005°27'3 1.3
2018-Jun-13 17:35N 35°56' W 005°30'114.1
2018-Jun-13 17:30N 35°57' W 005°30'612.8
2018-Jun-13 17:00N 36°02' W 005°25'6 9.7
2018-Jun-13 16:24N 36°08' W 005°26'1 0.5
2018-Jun-13 14:28N 36°09' W 005°26'715.8
2018-Jun-13 14:01N 36°02' W 005°24'7 2.7
2018-Jun-13 11:28N 35°56' W 005°30'715.1
2018-Jun-13 11:00N 36°02' W 005°25'712.3
2018-Jun-13 10:28N 36°09' W 005°26'1 0.4
2018-Jun-13 08:41N 36°08' W 005°26'1 5.7
2018-Jun-13 08:30N 36°09' W 005°25'815.8
2018-Jun-13 08:01N 36°01' W 005°25'10 4.9
2018-Jun-13 06:01N 35°53' W 005°31'0 2.4
2018-Jun-13 05:56N 35°53' W 005°31'512.7
2018-Jun-13 05:30N 35°58' W 005°29'713.4
2018-Jun-13 05:01N 36°04' W 005°24'5 9.6
2018-Jun-13 04:30N 36°08' W 005°26'0 0.8
2018-Jun-13 04:00N 36°08' W 005°26'0 0.0
2018-Jun-13 03:30N 36°08' W 005°26'0 0.0
2018-Jun-13 03:00N 36°08' W 005°26'1 2.7
2018-Jun-13 02:30N 36°09' W 005°25'815.4
2018-Jun-13 02:00N 36°01' W 005°24'917.5
2018-Jun-13 01:28N 35°54' W 005°31'3 1.2
2018-Jun-12 23:20N 35°56' W 005°30'515.3
2018-Jun-12 23:00N 36°00' W 005°26'815.0
2018-Jun-12 22:29N 36°08' W 005°24'2 1.0
2018-Jun-12 20:45N 36°08' W 005°26'1 2.2
2018-Jun-12 20:30N 36°08' W 005°26'611.8
2018-Jun-12 20:00N 36°03' W 005°23'8 1.0
2018-Jun-12 11:29N 35°56' W 005°30'714.9
2018-Jun-12 11:00N 36°02' W 005°25'7 2.7
2018-Jun-12 08:34N 36°09' W 005°26'112.7
2018-Jun-12 08:29N 36°09' W 005°25'816.7
2018-Jun-12 08:00N 36°01' W 005°24'6 2.2
2018-Jun-12 05:22N 35°57' W 005°29'513.5
2018-Jun-12 05:00N 36°01' W 005°26'815.0
2018-Jun-12 04:30N 36°08' W 005°24'1 2.9
2018-Jun-12 04:00N 36°08' W 005°26'0 0.0
2018-Jun-12 03:30N 36°08' W 005°26'0 0.0
2018-Jun-12 03:00N 36°08' W 005°26'1 2.9
2018-Jun-12 02:30N 36°09' W 005°25'817.0
2018-Jun-12 02:01N 36°01' W 005°24'10 4.6
2018-Jun-11 23:53N 35°53' W 005°31'615.3
2018-Jun-11 23:30N 35°58' W 005°29'714.5
2018-Jun-11 23:01N 36°05' W 005°24'4 7.7
2018-Jun-11 22:31N 36°08' W 005°26'0 0.0
2018-Jun-11 22:01N 36°08' W 005°26'1 2.3
2018-Jun-11 21:30N 36°09' W 005°26'3 5.9
2018-Jun-11 20:59N 36°09' W 005°22'1 1.4
2018-Jun-11 20:30N 36°09' W 005°23'714.4
2018-Jun-11 20:00N 36°01' W 005°24'7 2.8
2018-Jun-11 17:32N 35°56' W 005°30'114.7
2018-Jun-11 17:30N 35°57' W 005°29'713.5
2018-Jun-11 17:01N 36°02' W 005°25'6 2.7
2018-Jun-11 14:50N 36°08' W 005°26'711.2
2018-Jun-11 14:15N 36°02' W 005°23'11 1.3
2018-Jun-11 05:42N 35°53' W 005°31'313.9
2018-Jun-11 05:29N 35°56' W 005°30'613.4
2018-Jun-11 05:00N 36°01' W 005°26'714.8
2018-Jun-11 04:30N 36°09' W 005°25'1 2.4
2018-Jun-11 03:58N 36°08' W 005°26'0 0.0
2018-Jun-11 03:30N 36°08' W 005°26'0 0.0
2018-Jun-11 02:59N 36°08' W 005°26'0 0.7
2018-Jun-11 02:31N 36°08' W 005°26'510.1
2018-Jun-11 02:00N 36°04' W 005°24'9 3.2
2018-Jun-10 23:15N 35°56' W 005°30'415.3
2018-Jun-10 23:00N 35°59' W 005°27'714.9
2018-Jun-10 22:30N 36°06' W 005°24'3 1.8
2018-Jun-10 21:04N 36°08' W 005°26'0 0.1
2018-Jun-10 20:54N 36°08' W 005°26'4 7.0
2018-Jun-10 20:17N 36°05' W 005°23'415.0
2018-Jun-10 20:00N 36°00' W 005°23'7 2.5
2018-Jun-10 17:18N 35°56' W 005°30'413.5
2018-Jun-10 17:00N 35°59' W 005°27'714.1
2018-Jun-10 16:31N 36°06' W 005°24'3 1.7
2018-Jun-10 14:55N 36°08' W 005°26'0 0.1
2018-Jun-10 14:30N 36°08' W 005°26'1111.3
2018-Jun-10 13:30N 35°57' W 005°28'2 0.8
2018-Jun-10 11:22N 35°56' W 005°30'615.1
2018-Jun-10 11:00N 36°01' W 005°26'714.8
2018-Jun-10 10:31N 36°08' W 005°24'2 3.2
2018-Jun-10 10:00N 36°08' W 005°26'0 0.0
2018-Jun-10 09:30N 36°08' W 005°26'0 0.0
2018-Jun-10 08:58N 36°08' W 005°26'0 0.0
2018-Jun-10 08:30N 36°08' W 005°26'3 5.7
2018-Jun-10 08:00N 36°06' W 005°24'917.4
2018-Jun-10 07:31N 35°58' W 005°27'6 3.2
2018-Jun-10 05:41N 35°53' W 005°31'311.1
2018-Jun-10 05:24N 35°56' W 005°31'614.6
2018-Jun-10 05:00N 36°00' W 005°27'714.9
2018-Jun-10 04:30N 36°08' W 005°24'2 3.3
2018-Jun-10 03:58N 36°08' W 005°26'0 0.0
2018-Jun-10 03:28N 36°08' W 005°26'0 0.0
2018-Jun-10 03:00N 36°08' W 005°26'0 0.0
2018-Jun-10 02:30N 36°08' W 005°26'3 6.3
2018-Jun-10 02:01N 36°06' W 005°23'918.0
2018-Jun-10 01:31N 35°57' W 005°27'5 2.7
2018-Jun-09 23:33N 35°54' W 005°31'0 9.6
2018-Jun-09 23:31N 35°54' W 005°31'611.3
2018-Jun-09 23:01N 35°59' W 005°28'714.5
2018-Jun-09 22:30N 36°05' W 005°24'3 6.3
2018-Jun-09 22:00N 36°08' W 005°26'0 0.0
2018-Jun-09 21:00N 36°08' W 005°26'1 1.7
2018-Jun-09 20:30N 36°09' W 005°26'612.6
2018-Jun-09 20:00N 36°03' W 005°23'1117.8
2018-Jun-09 19:24N 35°54' W 005°31'1 0.4
2018-Jun-09 17:27N 35°54' W 005°31'614.5
2018-Jun-09 17:01N 35°59' W 005°27'714.6
2018-Jun-09 16:31N 36°06' W 005°24'3 5.8
2018-Jun-09 16:00N 36°08' W 005°26'0 0.0
2018-Jun-09 15:00N 36°08' W 005°26'0 0.6
2018-Jun-09 14:30N 36°08' W 005°26'510.5
2018-Jun-09 14:01N 36°03' W 005°24'1118.2
2018-Jun-09 13:24N 35°54' W 005°31'3 1.5
2018-Jun-09 11:20N 35°57' W 005°31'514.6
2018-Jun-09 11:01N 35°60' W 005°26'714.6
2018-Jun-09 10:30N 36°07' W 005°24'2 4.7
2018-Jun-09 10:00N 36°08' W 005°26'0 0.0
2018-Jun-09 09:27N 36°08' W 005°26'0 0.0
2018-Jun-09 08:59N 36°08' W 005°26'1 1.5
2018-Jun-09 08:29N 36°09' W 005°26'612.8
2018-Jun-09 08:00N 36°03' W 005°24'11 4.3
2018-Jun-09 05:30N 35°54' W 005°32'611.7
2018-Jun-09 05:00N 35°59' W 005°28'714.4
2018-Jun-09 04:30N 36°05' W 005°24'3 1.6
2018-Jun-09 02:27N 36°08' W 005°26'3 6.0
2018-Jun-09 02:00N 36°06' W 005°24'917.9
2018-Jun-09 01:31N 35°58' W 005°27'6 3.3
2018-Jun-08 23:47N 35°53' W 005°31'1 3.6
2018-Jun-08 23:28N 35°54' W 005°32'612.6
2018-Jun-08 23:00N 35°59' W 005°28'  

Dump ship's entire track history